sensor_id;sensor_type;location;lat;lon;timestamp;temperature;humidity
24232;DHT22;12364;47.810;8.810;2024-03-08T04:47:23;5.80;99.90
24232;DHT22;12364;47.810;8.810;2024-03-08T04:49:51;6.00;99.90
24232;DHT22;12364;47.810;8.810;2024-03-08T04:52:19;5.90;99.90
24232;DHT22;12364;47.810;8.810;2024-03-08T04:54:46;5.90;99.90
24232;DHT22;12364;47.810;8.810;2024-03-08T04:57:13;6.00;99.90
24232;DHT22;12364;47.810;8.810;2024-03-08T05:02:08;5.90;99.90
24232;DHT22;12364;47.810;8.810;2024-03-08T05:04:35;5.30;99.90
24232;DHT22;12364;47.810;8.810;2024-03-08T05:07:02;5.20;99.90
24232;DHT22;12364;47.810;8.810;2024-03-08T05:09:30;5.20;99.90
24232;DHT22;12364;47.810;8.810;2024-03-08T05:11:59;5.20;99.90
24232;DHT22;12364;47.810;8.810;2024-03-08T05:14:26;5.40;99.90
24232;DHT22;12364;47.810;8.810;2024-03-08T05:16:53;5.50;99.90
24232;DHT22;12364;47.810;8.810;2024-03-08T05:19:20;5.40;99.90
24232;DHT22;12364;47.810;8.810;2024-03-08T05:21:48;5.30;99.90
24232;DHT22;12364;47.810;8.810;2024-03-08T05:24:15;5.30;99.90
24232;DHT22;12364;47.810;8.810;2024-03-08T05:26:43;5.20;99.90
24232;DHT22;12364;47.810;8.810;2024-03-08T05:29:11;5.40;99.90
24232;DHT22;12364;47.810;8.810;2024-03-08T05:31:42;5.50;99.90
24232;DHT22;12364;47.810;8.810;2024-03-08T05:34:12;5.50;99.90
24232;DHT22;12364;47.810;8.810;2024-03-08T05:36:41;5.60;99.90
24232;DHT22;12364;47.810;8.810;2024-03-08T05:39:11;5.50;99.90
24232;DHT22;12364;47.810;8.810;2024-03-08T05:41:39;5.50;99.90
24232;DHT22;12364;47.810;8.810;2024-03-08T05:44:07;5.50;99.90
24232;DHT22;12364;47.810;8.810;2024-03-08T05:46:34;5.40;99.90
24232;DHT22;12364;47.810;8.810;2024-03-08T05:49:02;5.60;99.90
24232;DHT22;12364;47.810;8.810;2024-03-08T05:51:33;5.80;99.90
24232;DHT22;12364;47.810;8.810;2024-03-08T05:54:04;5.70;99.90
24232;DHT22;12364;47.810;8.810;2024-03-08T05:56:37;5.80;99.90
24232;DHT22;12364;47.810;8.810;2024-03-08T05:59:04;5.90;99.90
24232;DHT22;12364;47.810;8.810;2024-03-08T06:01:31;6.00;99.90
24232;DHT22;12364;47.810;8.810;2024-03-08T06:04:00;5.90;99.90
24232;DHT22;12364;47.810;8.810;2024-03-08T06:06:27;5.90;99.90
24232;DHT22;12364;47.810;8.810;2024-03-08T06:08:54;5.80;99.90
24232;DHT22;12364;47.810;8.810;2024-03-08T06:11:23;5.50;99.90
24232;DHT22;12364;47.810;8.810;2024-03-08T06:13:50;5.40;99.90
24232;DHT22;12364;47.810;8.810;2024-03-08T06:16:17;5.80;99.90
24232;DHT22;12364;47.810;8.810;2024-03-08T06:18:44;5.80;99.90
24232;DHT22;12364;47.810;8.810;2024-03-08T06:21:13;5.80;99.90
24232;DHT22;12364;47.810;8.810;2024-03-08T06:23:40;5.70;99.90
24232;DHT22;12364;47.810;8.810;2024-03-08T06:26:08;5.80;99.90
24232;DHT22;12364;47.810;8.810;2024-03-08T06:28:35;5.90;99.90
24232;DHT22;12364;47.810;8.810;2024-03-08T06:31:02;5.80;99.90
24232;DHT22;12364;47.810;8.810;2024-03-08T06:33:29;5.90;99.90
24232;DHT22;12364;47.810;8.810;2024-03-08T06:35:56;5.70;99.90
24232;DHT22;12364;47.810;8.810;2024-03-08T06:38:24;5.50;99.90
24232;DHT22;12364;47.810;8.810;2024-03-08T06:40:52;5.40;99.90
24232;DHT22;12364;47.810;8.810;2024-03-08T06:43:19;5.50;99.90
24232;DHT22;12364;47.810;8.810;2024-03-08T06:45:46;5.70;99.90
24232;DHT22;12364;47.810;8.810;2024-03-08T06:48:16;5.80;99.90
24232;DHT22;12364;47.810;8.810;2024-03-08T06:50:47;5.50;99.90
24232;DHT22;12364;47.810;8.810;2024-03-08T06:53:14;5.60;99.90
24232;DHT22;12364;47.810;8.810;2024-03-08T06:55:44;5.80;99.90
24232;DHT22;12364;47.810;8.810;2024-03-08T06:58:11;5.50;99.90
24232;DHT22;12364;47.810;8.810;2024-03-08T07:00:38;5.50;99.90
24232;DHT22;12364;47.810;8.810;2024-03-08T07:03:08;5.30;99.90
24232;DHT22;12364;47.810;8.810;2024-03-08T07:05:39;5.30;99.90
24232;DHT22;12364;47.810;8.810;2024-03-08T07:08:07;5.40;99.90
24232;DHT22;12364;47.810;8.810;2024-03-08T07:10:34;5.10;99.90
24232;DHT22;12364;47.810;8.810;2024-03-08T07:13:02;4.80;99.90
24232;DHT22;12364;47.810;8.810;2024-03-08T07:15:29;4.70;99.90
24232;DHT22;12364;47.810;8.810;2024-03-08T07:17:56;5.00;99.90
24232;DHT22;12364;47.810;8.810;2024-03-08T07:20:23;4.80;99.90
24232;DHT22;12364;47.810;8.810;2024-03-08T07:22:50;5.00;99.90
24232;DHT22;12364;47.810;8.810;2024-03-08T07:25:18;4.80;99.90
24232;DHT22;12364;47.810;8.810;2024-03-08T07:27:50;5.10;99.90
24232;DHT22;12364;47.810;8.810;2024-03-08T07:30:18;5.20;99.90
24232;DHT22;12364;47.810;8.810;2024-03-08T07:33:04;5.20;99.90
24232;DHT22;12364;47.810;8.810;2024-03-08T07:35:33;5.00;99.90
24232;DHT22;12364;47.810;8.810;2024-03-08T07:38:07;4.90;99.90
24232;DHT22;12364;47.810;8.810;2024-03-08T07:40:39;4.80;99.90
24232;DHT22;12364;47.810;8.810;2024-03-08T07:43:08;4.80;99.90
24232;DHT22;12364;47.810;8.810;2024-03-08T07:45:35;4.80;99.90
24232;DHT22;12364;47.810;8.810;2024-03-08T07:48:03;4.70;99.90
24232;DHT22;12364;47.810;8.810;2024-03-08T07:50:31;4.70;99.90
24232;DHT22;12364;47.810;8.810;2024-03-08T07:53:00;4.80;99.90
24232;DHT22;12364;47.810;8.810;2024-03-08T07:55:28;4.70;99.90
24232;DHT22;12364;47.810;8.810;2024-03-08T07:57:55;4.50;99.90
24232;DHT22;12364;47.810;8.810;2024-03-08T08:00:22;4.60;99.90
24232;DHT22;12364;47.810;8.810;2024-03-08T08:02:51;4.60;99.90
24232;DHT22;12364;47.810;8.810;2024-03-08T08:05:18;4.80;99.90
24232;DHT22;12364;47.810;8.810;2024-03-08T08:07:45;4.70;99.90
24232;DHT22;12364;47.810;8.810;2024-03-08T08:10:15;4.60;99.90
24232;DHT22;12364;47.810;8.810;2024-03-08T08:12:49;4.30;99.90
24232;DHT22;12364;47.810;8.810;2024-03-08T08:15:16;4.20;99.90
24232;DHT22;12364;47.810;8.810;2024-03-08T08:17:46;4.10;99.90
24232;DHT22;12364;47.810;8.810;2024-03-08T08:20:13;4.20;99.90
24232;DHT22;12364;47.810;8.810;2024-03-08T08:22:40;4.30;99.90
24232;DHT22;12364;47.810;8.810;2024-03-08T08:25:08;4.40;99.90
24232;DHT22;12364;47.810;8.810;2024-03-08T08:27:35;4.30;99.90
24232;DHT22;12364;47.810;8.810;2024-03-08T08:30:06;4.40;99.90
24232;DHT22;12364;47.810;8.810;2024-03-08T08:32:35;4.60;99.90
24232;DHT22;12364;47.810;8.810;2024-03-08T08:35:11;4.60;99.90
24232;DHT22;12364;47.810;8.810;2024-03-08T08:37:39;4.50;99.90
24232;DHT22;12364;47.810;8.810;2024-03-08T08:40:07;4.60;99.90
24232;DHT22;12364;47.810;8.810;2024-03-08T08:42:41;4.60;99.90
24232;DHT22;12364;47.810;8.810;2024-03-08T08:45:08;4.70;99.90
24232;DHT22;12364;47.810;8.810;2024-03-08T08:47:43;4.70;99.90
24232;DHT22;12364;47.810;8.810;2024-03-08T08:50:12;4.70;99.90
24232;DHT22;12364;47.810;8.810;2024-03-08T08:52:40;4.80;99.90
24232;DHT22;12364;47.810;8.810;2024-03-08T08:55:07;4.60;99.90
24232;DHT22;12364;47.810;8.810;2024-03-08T08:57:34;4.60;99.90
24232;DHT22;12364;47.810;8.810;2024-03-08T09:00:03;4.60;99.90
24232;DHT22;12364;47.810;8.810;2024-03-08T09:02:34;4.90;99.90
24232;DHT22;12364;47.810;8.810;2024-03-08T09:05:02;5.00;99.90
24232;DHT22;12364;47.810;8.810;2024-03-08T09:07:29;5.20;99.90
24232;DHT22;12364;47.810;8.810;2024-03-08T09:09:57;5.30;99.90
24232;DHT22;12364;47.810;8.810;2024-03-08T09:12:26;5.10;99.90
24232;DHT22;12364;47.810;8.810;2024-03-08T09:14:53;4.90;99.90
24232;DHT22;12364;47.810;8.810;2024-03-08T09:17:20;5.00;99.90
24232;DHT22;12364;47.810;8.810;2024-03-08T09:19:48;5.20;99.90
24232;DHT22;12364;47.810;8.810;2024-03-08T09:22:15;5.40;99.90
24232;DHT22;12364;47.810;8.810;2024-03-08T09:24:42;5.50;99.90
24232;DHT22;12364;47.810;8.810;2024-03-08T09:27:12;5.50;99.90
24232;DHT22;12364;47.810;8.810;2024-03-08T09:29:40;5.60;99.90
24232;DHT22;12364;47.810;8.810;2024-03-08T09:32:07;5.70;99.90
24232;DHT22;12364;47.810;8.810;2024-03-08T09:34:34;5.70;99.90
24232;DHT22;12364;47.810;8.810;2024-03-08T09:37:04;5.60;99.90
24232;DHT22;12364;47.810;8.810;2024-03-08T09:39:31;5.30;99.90
24232;DHT22;12364;47.810;8.810;2024-03-08T09:42:03;5.10;99.90
24232;DHT22;12364;47.810;8.810;2024-03-08T09:44:30;5.30;99.90
24232;DHT22;12364;47.810;8.810;2024-03-08T09:46:58;5.40;99.90
24232;DHT22;12364;47.810;8.810;2024-03-08T09:49:25;5.60;99.90
24232;DHT22;12364;47.810;8.810;2024-03-08T09:51:52;5.70;99.90
24232;DHT22;12364;47.810;8.810;2024-03-08T09:54:20;5.70;99.90
24232;DHT22;12364;47.810;8.810;2024-03-08T09:56:51;5.70;99.90
24232;DHT22;12364;47.810;8.810;2024-03-08T09:59:18;5.40;99.90
24232;DHT22;12364;47.810;8.810;2024-03-08T10:01:54;5.30;99.90
24232;DHT22;12364;47.810;8.810;2024-03-08T10:04:25;5.50;99.90
24232;DHT22;12364;47.810;8.810;2024-03-08T10:06:55;5.30;99.90
24232;DHT22;12364;47.810;8.810;2024-03-08T10:09:23;5.40;99.90
24232;DHT22;12364;47.810;8.810;2024-03-08T10:11:53;5.40;99.90
24232;DHT22;12364;47.810;8.810;2024-03-08T10:14:22;5.50;99.90
24232;DHT22;12364;47.810;8.810;2024-03-08T10:16:49;5.50;99.90
24232;DHT22;12364;47.810;8.810;2024-03-08T10:19:16;5.30;99.90
24232;DHT22;12364;47.810;8.810;2024-03-08T10:21:47;5.20;99.90
24232;DHT22;12364;47.810;8.810;2024-03-08T10:24:14;5.20;99.90
24232;DHT22;12364;47.810;8.810;2024-03-08T10:26:41;4.90;99.90
24232;DHT22;12364;47.810;8.810;2024-03-08T10:29:10;5.00;99.90
24232;DHT22;12364;47.810;8.810;2024-03-08T10:31:45;5.20;99.90
24232;DHT22;12364;47.810;8.810;2024-03-08T10:34:12;5.20;99.90
24232;DHT22;12364;47.810;8.810;2024-03-08T10:36:40;5.20;99.90
24232;DHT22;12364;47.810;8.810;2024-03-08T10:39:12;4.90;99.90
24232;DHT22;12364;47.810;8.810;2024-03-08T10:41:41;5.00;99.90
24232;DHT22;12364;47.810;8.810;2024-03-08T10:44:23;5.10;99.90
24232;DHT22;12364;47.810;8.810;2024-03-08T10:47:00;4.90;99.90
24232;DHT22;12364;47.810;8.810;2024-03-08T10:49:30;4.80;99.90
24232;DHT22;12364;47.810;8.810;2024-03-08T10:52:04;4.90;99.90
24232;DHT22;12364;47.810;8.810;2024-03-08T10:54:32;5.00;99.90
24232;DHT22;12364;47.810;8.810;2024-03-08T10:57:01;5.00;99.90
24232;DHT22;12364;47.810;8.810;2024-03-08T10:59:29;5.10;99.90
24232;DHT22;12364;47.810;8.810;2024-03-08T11:01:56;5.00;99.90
24232;DHT22;12364;47.810;8.810;2024-03-08T11:04:23;5.10;99.90
24232;DHT22;12364;47.810;8.810;2024-03-08T11:06:51;5.40;99.90
24232;DHT22;12364;47.810;8.810;2024-03-08T11:09:27;5.70;99.90
24232;DHT22;12364;47.810;8.810;2024-03-08T11:14:43;5.80;99.90
24232;DHT22;12364;47.810;8.810;2024-03-08T11:17:10;5.80;99.90
24232;DHT22;12364;47.810;8.810;2024-03-08T11:19:37;5.50;99.90
24232;DHT22;12364;47.810;8.810;2024-03-08T11:22:07;5.20;99.90
24232;DHT22;12364;47.810;8.810;2024-03-08T11:24:46;5.20;99.90
24232;DHT22;12364;47.810;8.810;2024-03-08T11:27:13;5.30;99.90
24232;DHT22;12364;47.810;8.810;2024-03-08T11:29:41;5.60;99.90
24232;DHT22;12364;47.810;8.810;2024-03-08T11:32:09;5.70;99.90
24232;DHT22;12364;47.810;8.810;2024-03-08T11:34:38;5.80;99.90
24232;DHT22;12364;47.810;8.810;2024-03-08T11:37:12;5.90;99.90
24232;DHT22;12364;47.810;8.810;2024-03-08T11:39:41;5.70;99.90
24232;DHT22;12364;47.810;8.810;2024-03-08T11:42:13;5.70;99.90
24232;DHT22;12364;47.810;8.810;2024-03-08T11:44:40;5.40;99.90
24232;DHT22;12364;47.810;8.810;2024-03-08T11:47:11;5.20;99.90
24232;DHT22;12364;47.810;8.810;2024-03-08T11:49:38;5.10;99.90
24232;DHT22;12364;47.810;8.810;2024-03-08T11:52:09;5.30;99.90
24232;DHT22;12364;47.810;8.810;2024-03-08T11:54:39;5.00;99.90
24232;DHT22;12364;47.810;8.810;2024-03-08T11:57:07;5.20;99.90
24232;DHT22;12364;47.810;8.810;2024-03-08T11:59:34;5.00;99.90
24232;DHT22;12364;47.810;8.810;2024-03-08T12:02:02;5.20;99.90
24232;DHT22;12364;47.810;8.810;2024-03-08T12:04:30;5.40;99.90
24232;DHT22;12364;47.810;8.810;2024-03-08T12:07:00;5.60;99.90
24232;DHT22;12364;47.810;8.810;2024-03-08T12:09:29;5.50;99.90
24232;DHT22;12364;47.810;8.810;2024-03-08T12:11:57;5.20;99.90
24232;DHT22;12364;47.810;8.810;2024-03-08T12:14:26;5.20;99.90
24232;DHT22;12364;47.810;8.810;2024-03-08T12:16:53;5.40;99.90
24232;DHT22;12364;47.810;8.810;2024-03-08T12:19:20;5.40;99.90
24232;DHT22;12364;47.810;8.810;2024-03-08T12:21:47;5.40;99.90
24232;DHT22;12364;47.810;8.810;2024-03-08T12:24:17;5.40;99.90
24232;DHT22;12364;47.810;8.810;2024-03-08T12:26:48;5.40;99.90
24232;DHT22;12364;47.810;8.810;2024-03-08T12:29:15;5.40;99.90
24232;DHT22;12364;47.810;8.810;2024-03-08T12:31:47;5.40;99.90
24232;DHT22;12364;47.810;8.810;2024-03-08T12:34:14;5.40;99.90
24232;DHT22;12364;47.810;8.810;2024-03-08T12:36:45;5.30;99.90
24232;DHT22;12364;47.810;8.810;2024-03-08T12:39:20;5.20;99.90
24232;DHT22;12364;47.810;8.810;2024-03-08T12:41:55;5.10;99.90
24232;DHT22;12364;47.810;8.810;2024-03-08T12:44:24;5.00;99.90
24232;DHT22;12364;47.810;8.810;2024-03-08T12:46:52;5.30;99.90
24232;DHT22;12364;47.810;8.810;2024-03-08T12:49:20;5.30;99.90
24232;DHT22;12364;47.810;8.810;2024-03-08T12:51:50;5.60;99.90
24232;DHT22;12364;47.810;8.810;2024-03-08T12:54:19;5.60;99.90
24232;DHT22;12364;47.810;8.810;2024-03-08T12:56:50;5.50;99.90
24232;DHT22;12364;47.810;8.810;2024-03-08T12:59:20;5.50;99.90
24232;DHT22;12364;47.810;8.810;2024-03-08T13:01:48;5.40;99.90
24232;DHT22;12364;47.810;8.810;2024-03-08T13:04:17;5.30;99.90
24232;DHT22;12364;47.810;8.810;2024-03-08T13:06:45;5.20;99.90
24232;DHT22;12364;47.810;8.810;2024-03-08T13:09:21;5.30;99.90
24232;DHT22;12364;47.810;8.810;2024-03-08T13:11:49;5.20;99.90
24232;DHT22;12364;47.810;8.810;2024-03-08T13:14:16;5.40;99.90
24232;DHT22;12364;47.810;8.810;2024-03-08T13:16:43;5.40;99.90
24232;DHT22;12364;47.810;8.810;2024-03-08T13:19:15;5.60;99.90
24232;DHT22;12364;47.810;8.810;2024-03-08T13:21:45;5.80;99.90
24232;DHT22;12364;47.810;8.810;2024-03-08T13:24:16;5.70;99.90
24232;DHT22;12364;47.810;8.810;2024-03-08T13:26:43;5.80;99.90
24232;DHT22;12364;47.810;8.810;2024-03-08T13:29:11;6.10;99.90
24232;DHT22;12364;47.810;8.810;2024-03-08T13:31:38;6.00;99.90
24232;DHT22;12364;47.810;8.810;2024-03-08T13:34:06;6.00;99.90
24232;DHT22;12364;47.810;8.810;2024-03-08T13:36:33;5.70;99.90
24232;DHT22;12364;47.810;8.810;2024-03-08T13:39:06;5.80;99.90
24232;DHT22;12364;47.810;8.810;2024-03-08T13:41:42;6.00;99.90
24232;DHT22;12364;47.810;8.810;2024-03-08T13:44:09;6.00;99.90
24232;DHT22;12364;47.810;8.810;2024-03-08T13:46:36;6.00;99.90
24232;DHT22;12364;47.810;8.810;2024-03-08T13:49:05;5.80;99.90
24232;DHT22;12364;47.810;8.810;2024-03-08T13:51:36;5.90;99.90
24232;DHT22;12364;47.810;8.810;2024-03-08T13:54:03;6.10;99.90
24232;DHT22;12364;47.810;8.810;2024-03-08T13:56:33;6.10;99.90
24232;DHT22;12364;47.810;8.810;2024-03-08T13:59:01;6.00;99.90
24232;DHT22;12364;47.810;8.810;2024-03-08T14:01:29;5.80;99.90
24232;DHT22;12364;47.810;8.810;2024-03-08T14:03:57;5.80;99.90
24232;DHT22;12364;47.810;8.810;2024-03-08T14:06:24;5.90;99.90
24232;DHT22;12364;47.810;8.810;2024-03-08T14:08:57;6.00;99.90
24232;DHT22;12364;47.810;8.810;2024-03-08T14:11:24;5.90;99.90
24232;DHT22;12364;47.810;8.810;2024-03-08T14:13:52;6.00;99.90
24232;DHT22;12364;47.810;8.810;2024-03-08T14:16:20;6.10;99.90
24232;DHT22;12364;47.810;8.810;2024-03-08T14:18:47;6.20;99.90
24232;DHT22;12364;47.810;8.810;2024-03-08T14:21:14;6.30;99.90
24232;DHT22;12364;47.810;8.810;2024-03-08T14:23:41;6.50;99.90
24232;DHT22;12364;47.810;8.810;2024-03-08T14:26:09;6.60;99.90
24232;DHT22;12364;47.810;8.810;2024-03-08T14:28:38;6.60;99.90
24232;DHT22;12364;47.810;8.810;2024-03-08T14:31:05;6.70;99.90
24232;DHT22;12364;47.810;8.810;2024-03-08T14:33:37;6.70;99.90
24232;DHT22;12364;47.810;8.810;2024-03-08T14:36:04;6.60;99.90
24232;DHT22;12364;47.810;8.810;2024-03-08T14:38:32;6.60;99.90
24232;DHT22;12364;47.810;8.810;2024-03-08T14:41:01;6.60;99.90
24232;DHT22;12364;47.810;8.810;2024-03-08T14:43:31;6.40;99.90
24232;DHT22;12364;47.810;8.810;2024-03-08T14:45:59;6.30;99.90
24232;DHT22;12364;47.810;8.810;2024-03-08T14:48:26;6.30;99.90
24232;DHT22;12364;47.810;8.810;2024-03-08T14:50:53;6.40;99.90
24232;DHT22;12364;47.810;8.810;2024-03-08T14:53:20;6.50;99.90
24232;DHT22;12364;47.810;8.810;2024-03-08T14:55:47;6.70;99.90
24232;DHT22;12364;47.810;8.810;2024-03-08T14:58:14;6.50;99.90
24232;DHT22;12364;47.810;8.810;2024-03-08T15:00:42;6.40;99.90
24232;DHT22;12364;47.810;8.810;2024-03-08T15:03:10;6.40;99.90
24232;DHT22;12364;47.810;8.810;2024-03-08T15:05:40;6.30;99.90
24232;DHT22;12364;47.810;8.810;2024-03-08T15:08:09;6.40;99.90
24232;DHT22;12364;47.810;8.810;2024-03-08T15:10:38;6.30;99.90
24232;DHT22;12364;47.810;8.810;2024-03-08T15:13:08;6.50;99.90
24232;DHT22;12364;47.810;8.810;2024-03-08T15:15:42;6.60;99.90
24232;DHT22;12364;47.810;8.810;2024-03-08T15:18:12;6.60;99.90
24232;DHT22;12364;47.810;8.810;2024-03-08T15:20:39;6.50;99.90
24232;DHT22;12364;47.810;8.810;2024-03-08T15:23:08;6.50;99.90
24232;DHT22;12364;47.810;8.810;2024-03-08T15:25:37;6.60;99.90
24232;DHT22;12364;47.810;8.810;2024-03-08T15:28:06;6.70;99.90
24232;DHT22;12364;47.810;8.810;2024-03-08T15:30:40;6.60;99.90
24232;DHT22;12364;47.810;8.810;2024-03-08T15:33:14;6.40;99.90
24232;DHT22;12364;47.810;8.810;2024-03-08T15:35:42;6.30;99.90
24232;DHT22;12364;47.810;8.810;2024-03-08T15:38:14;6.30;99.90
24232;DHT22;12364;47.810;8.810;2024-03-08T15:40:42;6.20;99.90
24232;DHT22;12364;47.810;8.810;2024-03-08T15:43:09;6.30;99.90
24232;DHT22;12364;47.810;8.810;2024-03-08T15:45:36;6.30;99.90
24232;DHT22;12364;47.810;8.810;2024-03-08T15:48:04;6.40;99.90
24232;DHT22;12364;47.810;8.810;2024-03-08T15:50:32;6.30;99.90
24232;DHT22;12364;47.810;8.810;2024-03-08T15:53:02;6.40;99.90
24232;DHT22;12364;47.810;8.810;2024-03-08T15:55:30;6.30;99.90
24232;DHT22;12364;47.810;8.810;2024-03-08T15:57:58;6.50;99.90
24232;DHT22;12364;47.810;8.810;2024-03-08T16:00:26;6.60;99.90
24232;DHT22;12364;47.810;8.810;2024-03-08T16:03:03;6.60;99.90
24232;DHT22;12364;47.810;8.810;2024-03-08T16:05:33;6.70;99.90
24232;DHT22;12364;47.810;8.810;2024-03-08T16:08:01;6.70;99.90
24232;DHT22;12364;47.810;8.810;2024-03-08T16:10:28;6.60;99.90
24232;DHT22;12364;47.810;8.810;2024-03-08T16:12:56;6.50;99.90
24232;DHT22;12364;47.810;8.810;2024-03-08T16:15:23;6.50;99.90
24232;DHT22;12364;47.810;8.810;2024-03-08T16:17:52;6.50;99.90
24232;DHT22;12364;47.810;8.810;2024-03-08T16:20:19;6.50;99.90
24232;DHT22;12364;47.810;8.810;2024-03-08T16:22:48;6.30;99.90
24232;DHT22;12364;47.810;8.810;2024-03-08T16:25:18;6.30;99.90
24232;DHT22;12364;47.810;8.810;2024-03-08T16:27:47;6.50;99.90
24232;DHT22;12364;47.810;8.810;2024-03-08T16:30:14;6.70;99.90
24232;DHT22;12364;47.810;8.810;2024-03-08T16:32:44;6.80;99.90
24232;DHT22;12364;47.810;8.810;2024-03-08T16:35:18;6.70;99.90
24232;DHT22;12364;47.810;8.810;2024-03-08T16:37:45;6.60;99.90
24232;DHT22;12364;47.810;8.810;2024-03-08T16:40:14;6.60;99.90
24232;DHT22;12364;47.810;8.810;2024-03-08T16:42:44;6.60;99.90
24232;DHT22;12364;47.810;8.810;2024-03-08T16:45:12;6.70;99.90
24232;DHT22;12364;47.810;8.810;2024-03-08T16:47:39;7.00;99.90
24232;DHT22;12364;47.810;8.810;2024-03-08T16:50:07;7.00;99.90
24232;DHT22;12364;47.810;8.810;2024-03-08T16:52:35;7.00;99.90
24232;DHT22;12364;47.810;8.810;2024-03-08T16:55:05;7.10;99.90
24232;DHT22;12364;47.810;8.810;2024-03-08T16:57:40;7.20;99.90
24232;DHT22;12364;47.810;8.810;2024-03-08T17:02:40;7.10;99.90
24232;DHT22;12364;47.810;8.810;2024-03-08T17:05:07;7.30;99.90
24232;DHT22;12364;47.810;8.810;2024-03-08T17:07:35;7.30;99.90
24232;DHT22;12364;47.810;8.810;2024-03-08T17:10:02;7.40;99.90
24232;DHT22;12364;47.810;8.810;2024-03-08T17:12:42;7.40;99.90
24232;DHT22;12364;47.810;8.810;2024-03-08T17:15:10;7.50;99.90
24232;DHT22;12364;47.810;8.810;2024-03-08T17:17:40;7.40;99.90
24232;DHT22;12364;47.810;8.810;2024-03-08T17:20:14;7.40;99.90
24232;DHT22;12364;47.810;8.810;2024-03-08T17:22:42;7.50;99.90
24232;DHT22;12364;47.810;8.810;2024-03-08T17:25:09;7.50;99.90
24232;DHT22;12364;47.810;8.810;2024-03-08T17:27:42;7.40;99.90
24232;DHT22;12364;47.810;8.810;2024-03-08T17:30:11;7.40;99.90
24232;DHT22;12364;47.810;8.810;2024-03-08T17:32:46;7.40;99.90
24232;DHT22;12364;47.810;8.810;2024-03-08T17:35:24;7.30;99.90
24232;DHT22;12364;47.810;8.810;2024-03-08T17:37:52;7.30;99.90
24232;DHT22;12364;47.810;8.810;2024-03-08T17:40:19;7.30;99.90
24232;DHT22;12364;47.810;8.810;2024-03-08T17:42:53;7.30;99.90
24232;DHT22;12364;47.810;8.810;2024-03-08T17:45:21;7.30;99.90
24232;DHT22;12364;47.810;8.810;2024-03-08T17:47:48;7.30;99.90
24232;DHT22;12364;47.810;8.810;2024-03-08T17:50:16;7.30;99.90
24232;DHT22;12364;47.810;8.810;2024-03-08T17:52:48;7.40;99.90
24232;DHT22;12364;47.810;8.810;2024-03-08T17:55:15;7.40;99.90
24232;DHT22;12364;47.810;8.810;2024-03-08T17:57:43;7.40;99.90
24232;DHT22;12364;47.810;8.810;2024-03-08T18:00:12;7.20;99.90
24232;DHT22;12364;47.810;8.810;2024-03-08T18:02:59;7.20;99.90
24232;DHT22;12364;47.810;8.810;2024-03-08T18:05:28;7.20;99.90
24232;DHT22;12364;47.810;8.810;2024-03-08T18:07:59;7.20;99.90
24232;DHT22;12364;47.810;8.810;2024-03-08T18:10:29;7.20;99.90
24232;DHT22;12364;47.810;8.810;2024-03-08T18:12:57;7.40;99.90
24232;DHT22;12364;47.810;8.810;2024-03-08T18:15:25;7.30;99.90
24232;DHT22;12364;47.810;8.810;2024-03-08T18:17:53;7.10;99.90
24232;DHT22;12364;47.810;8.810;2024-03-08T18:20:21;7.30;99.90
24232;DHT22;12364;47.810;8.810;2024-03-08T18:22:48;7.10;99.90
24232;DHT22;12364;47.810;8.810;2024-03-08T18:25:15;7.00;99.90
24232;DHT22;12364;47.810;8.810;2024-03-08T18:27:46;6.80;99.90
24232;DHT22;12364;47.810;8.810;2024-03-08T18:30:13;6.80;99.90
24232;DHT22;12364;47.810;8.810;2024-03-08T18:32:44;6.80;99.90
24232;DHT22;12364;47.810;8.810;2024-03-08T18:35:12;7.00;99.90
24232;DHT22;12364;47.810;8.810;2024-03-08T18:37:39;6.90;99.90
24232;DHT22;12364;47.810;8.810;2024-03-08T18:40:07;6.90;99.90
24232;DHT22;12364;47.810;8.810;2024-03-08T18:42:39;6.90;99.90
24232;DHT22;12364;47.810;8.810;2024-03-08T18:45:09;6.90;99.90
24232;DHT22;12364;47.810;8.810;2024-03-08T18:47:38;7.00;99.90
24232;DHT22;12364;47.810;8.810;2024-03-08T18:50:05;7.00;99.90
24232;DHT22;12364;47.810;8.810;2024-03-08T18:52:34;6.70;99.90
24232;DHT22;12364;47.810;8.810;2024-03-08T18:55:03;6.60;99.90
24232;DHT22;12364;47.810;8.810;2024-03-08T18:57:39;6.60;99.90
24232;DHT22;12364;47.810;8.810;2024-03-08T19:00:07;6.90;99.90
24232;DHT22;12364;47.810;8.810;2024-03-08T19:02:54;6.80;99.90
24232;DHT22;12364;47.810;8.810;2024-03-08T19:05:21;6.80;99.90
24232;DHT22;12364;47.810;8.810;2024-03-08T19:07:49;6.90;99.90
24232;DHT22;12364;47.810;8.810;2024-03-08T19:10:17;7.00;99.90
24232;DHT22;12364;47.810;8.810;2024-03-08T19:12:49;7.10;99.90
24232;DHT22;12364;47.810;8.810;2024-03-08T19:15:18;7.10;99.90
24232;DHT22;12364;47.810;8.810;2024-03-08T19:17:47;7.10;99.90
24232;DHT22;12364;47.810;8.810;2024-03-08T19:20:17;6.90;99.90
24232;DHT22;12364;47.810;8.810;2024-03-08T19:22:45;7.00;99.90
24232;DHT22;12364;47.810;8.810;2024-03-08T19:25:13;7.10;99.90
24232;DHT22;12364;47.810;8.810;2024-03-08T19:27:41;7.20;99.90
24232;DHT22;12364;47.810;8.810;2024-03-08T19:30:09;7.30;99.90
24232;DHT22;12364;47.810;8.810;2024-03-08T19:32:37;7.40;99.90
24232;DHT22;12364;47.810;8.810;2024-03-08T19:35:06;7.30;99.90
24232;DHT22;12364;47.810;8.810;2024-03-08T19:37:45;7.40;99.90
24232;DHT22;12364;47.810;8.810;2024-03-08T19:40:13;7.10;99.90
24232;DHT22;12364;47.810;8.810;2024-03-08T19:42:49;7.30;99.90
24232;DHT22;12364;47.810;8.810;2024-03-08T19:45:17;7.20;99.90
24232;DHT22;12364;47.810;8.810;2024-03-08T19:47:45;7.20;99.90
24232;DHT22;12364;47.810;8.810;2024-03-08T19:50:13;7.30;99.90
24232;DHT22;12364;47.810;8.810;2024-03-08T19:52:44;7.30;99.90
24232;DHT22;12364;47.810;8.810;2024-03-08T19:55:12;7.40;99.90
24232;DHT22;12364;47.810;8.810;2024-03-08T19:57:40;7.50;99.90
24232;DHT22;12364;47.810;8.810;2024-03-08T20:00:09;7.50;99.90
24232;DHT22;12364;47.810;8.810;2024-03-08T20:05:08;7.50;99.90
24232;DHT22;12364;47.810;8.810;2024-03-08T20:07:42;7.50;99.90
24232;DHT22;12364;47.810;8.810;2024-03-08T20:10:11;7.60;99.90
24232;DHT22;12364;47.810;8.810;2024-03-08T20:12:41;7.60;99.90
24232;DHT22;12364;47.810;8.810;2024-03-08T20:15:13;7.70;99.90
24232;DHT22;12364;47.810;8.810;2024-03-08T20:17:41;7.70;99.90
24232;DHT22;12364;47.810;8.810;2024-03-08T20:20:09;7.80;99.90
24232;DHT22;12364;47.810;8.810;2024-03-08T20:23:00;7.80;99.90
24232;DHT22;12364;47.810;8.810;2024-03-08T20:25:28;7.80;99.90
24232;DHT22;12364;47.810;8.810;2024-03-08T20:27:55;7.80;99.90
24232;DHT22;12364;47.810;8.810;2024-03-08T20:30:24;7.80;99.90
24232;DHT22;12364;47.810;8.810;2024-03-08T20:35:26;7.80;99.90
24232;DHT22;12364;47.810;8.810;2024-03-08T20:37:58;7.90;99.90
24232;DHT22;12364;47.810;8.810;2024-03-08T20:40:26;7.80;99.90
24232;DHT22;12364;47.810;8.810;2024-03-08T20:42:55;7.80;99.90
24232;DHT22;12364;47.810;8.810;2024-03-08T20:45:23;7.80;99.90
24232;DHT22;12364;47.810;8.810;2024-03-08T20:47:53;7.90;99.90
24232;DHT22;12364;47.810;8.810;2024-03-08T20:50:20;7.90;99.90
24232;DHT22;12364;47.810;8.810;2024-03-08T20:52:50;7.80;99.90
24232;DHT22;12364;47.810;8.810;2024-03-08T20:55:17;7.90;99.90